Snow/Ice From: 16-12-2017 16:00 Until: 17-12-2017 16:00 warning for: Snow/Ice Level: Yellow info button

Although rather usual in this region, locally or potentially dangerous phenomena are expected. (such as local winds, summer thunderstorms, rising streams or high waves) Be aware and pay attention to the latest weather updates, especially if you carry out activities exposed to weather or close to a stream or shoreline. 


Meteo18 Weather Cam more information Meteo18 Weather Cam


Thunder radar more information blitzortung!


warning for Snow/Ice more information rain snow radar


Visit our other weather sites:

Template documentation
and downloads

And another site



Weather Underground History page Text

Daily Summary for February 16, 2017 Units:  English    Metric   Both
« Previous Day
Next Day »
Daily Weekly Monthly Yearly Custom
  High: Low: Average:
Temperature: 55.2 °F 37.8 °F 46.6 °F
Dew Point: 49.5 °F 36.1 °F 44.1 °F
Humidity: 97 % 79 % 91 %
Wind Speed: 7 mph 0 mph 0.9 mph
Wind Gust: 9 mph - -
Wind:- - SW
Pressure: 30.5 in 30.4 in -
Precipitation: 0.07 in    
Historical Graphs
 
 
Tabular Data for February 16, 2017
Time Temperature Dew Point Pressure Wind Wind Speed Wind Gust Humidity Rainfall Rate (Hourly)
00:02 45 °F 41.9 °F 30.5 in Calm   2 mph 89 % 0 in
00:12 45.7 °F 42.6 °F 30.5 in Calm   2 mph 89 % 0 in
00:17 45.7 °F 43 °F 30.5 in Calm   1 mph 90 % 0 in
00:22 45.7 °F 42.6 °F 30.5 in Calm     89 % 0 in
00:27 45.1 °F 42.1 °F 30.5 in Calm     89 % 0 in
00:32 44.8 °F 41.7 °F 30.5 in WNW 1 mph 1 mph 89 % 0 in
00:37 43.9 °F 40.8 °F 30.5 in Calm   1 mph 89 % 0 in
00:42 44.1 °F 41.9 °F 30.5 in Calm   1 mph 92 % 0 in
00:47 44.8 °F 42.8 °F 30.5 in Calm   1 mph 93 % 0 in
00:52 44.8 °F 42.1 °F 30.5 in WNW 1 mph 1 mph 90 % 0 in
00:57 44.2 °F 41.7 °F 30.5 in WNW 1 mph 1 mph 91 % 0 in
01:02 44.1 °F 41.5 °F 30.5 in WNW 1 mph 1 mph 91 % 0 in
01:07 43.5 °F 40.8 °F 30.5 in West 1 mph 1 mph 90 % 0 in
01:12 43.3 °F 41.2 °F 30.5 in WNW 1 mph 1 mph 92 % 0 in
01:17 44.1 °F 42.4 °F 30.5 in Calm   2 mph 94 % 0 in
01:22 45.1 °F 43 °F 30.5 in Calm   2 mph 92 % 0 in
01:27 45.1 °F 42.4 °F 30.5 in Calm   2 mph 90 % 0 in
01:32 44.8 °F 42.1 °F 30.5 in Calm   1 mph 90 % 0 in
01:42 43.5 °F 40.8 °F 30.5 in Calm   1 mph 90 % 0 in
01:47 43 °F 40.5 °F 30.5 in Calm     91 % 0 in
01:52 42.8 °F 40.6 °F 30.5 in Calm     92 % 0 in
02:02 42.3 °F 40.1 °F 30.5 in Calm   1 mph 92 % 0 in
02:07 42.4 °F 40.6 °F 30.5 in Calm   1 mph 93 % 0 in
02:22 42.1 °F 39.9 °F 30.5 in WNW 2 mph 2 mph 92 % 0 in
02:32 42.3 °F 41 °F 30.5 in Calm   2 mph 95 % 0 in
02:42 42.4 °F 40.6 °F 30.5 in Calm   2 mph 93 % 0 in
02:52 42.1 °F 40.3 °F 30.5 in Calm   1 mph 93 % 0 in
02:57 41.7 °F 40.1 °F 30.5 in Calm   1 mph 94 % 0 in
03:02 41.7 °F 40.1 °F 30.5 in Calm   1 mph 94 % 0 in
03:07 42.1 °F 40.8 °F 30.5 in Calm   1 mph 95 % 0 in
03:12 42.1 °F 40.5 °F 30.5 in Calm   1 mph 94 % 0 in
03:17 41.7 °F 40.1 °F 30.5 in Calm   1 mph 94 % 0 in
03:22 41.5 °F 39.9 °F 30.5 in Calm     94 % 0 in
03:32 41.7 °F 40.5 °F 30.5 in Calm     95 % 0 in
03:42 42.1 °F 41 °F 30.5 in NE 1 mph   96 % 0 in
03:52 42.1 °F 40.8 °F 30.5 in Calm   2 mph 95 % 0 in
03:57 42.1 °F 40.8 °F 30.5 in North 1 mph 2 mph 95 % 0 in
04:02 41.7 °F 40.5 °F 30.5 in Calm   2 mph 95 % 0 in
04:12 40.8 °F 39.6 °F 30.5 in Calm   2 mph 95 % 0 in
04:22 41.4 °F 40.1 °F 30.5 in Calm   1 mph 95 % 0 in
04:27 39.2 °F 36.9 °F 30.5 in SE 1 mph 1 mph 91 % 0 in
04:32 37.9 °F 36.1 °F 30.5 in Calm   3 mph 93 % 0 in
04:42 39 °F 37.9 °F 30.5 in Calm   3 mph 96 % 0 in
04:47 39.4 °F 38.3 °F 30.5 in Calm   1 mph 96 % 0 in
04:52 39.6 °F 38.5 °F 30.5 in Calm     96 % 0 in
05:02 40.5 °F 39.7 °F 30.5 in Calm     97 % 0 in
05:07 40.5 °F 39.4 °F 30.5 in Calm     96 % 0 in
05:12 41 °F 40.3 °F 30.5 in Calm     97 % 0 in
05:17 40.6 °F 39.6 °F 30.5 in Calm     96 % 0 in
05:22 40.6 °F 39.6 °F 30.5 in Calm     96 % 0 in
05:32 39.7 °F 38.5 °F 30.5 in Calm     95 % 0 in
05:37 39.4 °F 38.1 °F 30.5 in Calm     95 % 0 in
05:42 39 °F 37.8 °F 30.5 in SSE 2 mph   95 % 0 in
05:47 38.5 °F 37.2 °F 30.5 in Calm   2 mph 95 % 0 in
05:52 37.9 °F 36.7 °F 30.5 in South 1 mph 2 mph 95 % 0 in
05:57 37.8 °F 36.5 °F 30.5 in SSW 1 mph 2 mph 95 % 0 in
06:02 37.8 °F 36.7 °F 30.5 in Calm   2 mph 96 % 0 in
06:12 37.9 °F 36.9 °F 30.5 in Calm   1 mph 96 % 0 in
06:17 38.1 °F 37 °F 30.5 in Calm   1 mph 96 % 0 in
06:22 38.5 °F 37.8 °F 30.5 in Calm   1 mph 97 % 0 in
06:27 38.5 °F 37.4 °F 30.5 in Calm     96 % 0 in
06:32 38.3 °F 37.2 °F 30.5 in Calm     96 % 0 in
06:42 38.5 °F 37.4 °F 30.5 in Calm     96 % 0 in
06:47 38.8 °F 38.1 °F 30.5 in Calm     97 % 0 in
06:52 39 °F 38.3 °F 30.5 in Calm     97 % 0 in
07:02 39.6 °F 38.8 °F 30.5 in SSW 2 mph 2 mph 97 % 0 in
07:07 39.6 °F 38.8 °F 30.5 in Calm   2 mph 97 % 0 in
07:12 39.4 °F 38.3 °F 30.5 in Calm   2 mph 96 % 0 in
07:17 39.4 °F 38.3 °F 30.5 in Calm   2 mph 96 % 0 in
07:22 39.2 °F 38.1 °F 30.5 in Calm   1 mph 96 % 0 in
07:27 39.4 °F 38.3 °F 30.5 in Calm   1 mph 96 % 0 in
07:32 39.4 °F 38.7 °F 30.5 in Calm   1 mph 97 % 0 in
07:42 40.1 °F 39.4 °F 30.5 in Calm   1 mph 97 % 0 in
07:47 40.1 °F 39.4 °F 30.5 in Calm   1 mph 97 % 0 in
07:52 39.9 °F 39.2 °F 30.5 in Calm   1 mph 97 % 0 in
07:57 39.9 °F 39.2 °F 30.5 in Calm   1 mph 97 % 0 in
08:02 39.7 °F 38.7 °F 30.5 in Calm     96 % 0 in
08:12 39.6 °F 38.5 °F 30.5 in Calm     96 % 0 in
08:17 39.6 °F 38.5 °F 30.5 in Calm     96 % 0 in
08:22 39.9 °F 39.2 °F 30.5 in Calm     97 % 0 in
08:32 40.3 °F 39.6 °F 30.5 in Calm     97 % 0 in
08:37 40.1 °F 39 °F 30.5 in Calm     96 % 0 in
08:42 40.1 °F 39 °F 30.5 in Calm   1 mph 96 % 0 in
08:47 40.1 °F 39 °F 30.5 in Calm   1 mph 96 % 0 in
08:57 40.3 °F 39.2 °F 30.5 in Calm     96 % 0 in
09:02 40.6 °F 39.9 °F 30.5 in Calm     97 % 0 in
09:07 40.8 °F 40.1 °F 30.5 in Calm     97 % 0 in
09:12 41.2 °F 40.1 °F 30.5 in Calm     96 % 0 in
09:17 41.2 °F 40.1 °F 30.5 in Calm     96 % 0 in
09:22 41.2 °F 40.1 °F 30.5 in Calm     96 % 0 in
09:27 41.2 °F 40.1 °F 30.5 in Calm     96 % 0 in
09:32 41.4 °F 40.3 °F 30.5 in Calm     96 % 0 in
09:37 41.7 °F 40.6 °F 30.5 in Calm     96 % 0 in
09:42 42.1 °F 41 °F 30.5 in Calm     96 % 0 in
09:47 42.1 °F 41 °F 30.5 in Calm     96 % 0 in
09:52 42.3 °F 41.2 °F 30.5 in Calm     96 % 0 in
09:57 42.4 °F 41.4 °F 30.5 in Calm     96 % 0 in
10:02 42.6 °F 41.4 °F 30.5 in Calm     95 % 0 in
10:12 43.2 °F 42.1 °F 30.5 in Calm     96 % 0 in
10:17 43.5 °F 42.3 °F 30.5 in Calm     95 % 0 in
10:22 44.1 °F 42.8 °F 30.5 in Calm     95 % 0 in
10:32 45 °F 43.3 °F 30.5 in Calm   2 mph 94 % 0 in
10:37 45.3 °F 43.7 °F 30.5 in Calm   2 mph 94 % 0 in
10:42 45.5 °F 43.5 °F 30.5 in SW 2 mph 2 mph 93 % 0 in
10:47 45.5 °F 43.3 °F 30.5 in SSW 1 mph 2 mph 92 % 0 in
10:52 45.9 °F 43.7 °F 30.5 in Calm   2 mph 92 % 0 in
11:02 46.2 °F 43.5 °F 30.5 in SSW 1 mph 3 mph 90 % 0 in
11:12 46.8 °F 44.1 °F 30.5 in SW 2 mph 3 mph 90 % 0 in
11:17 46.6 °F 43.9 °F 30.5 in SW 2 mph 4 mph 90 % 0 in
11:22 46.9 °F 44.2 °F 30.5 in SSW 2 mph 4 mph 90 % 0 in
11:27 47.1 °F 44.4 °F 30.5 in SSW 2 mph 4 mph 90 % 0 in
11:32 47.5 °F 44.8 °F 30.5 in SSE 2 mph 3 mph 90 % 0 in
11:42 48 °F 45 °F 30.5 in SW 3 mph 4 mph 89 % 0 in
11:52 48.4 °F 45.3 °F 30.5 in SW 3 mph 4 mph 89 % 0 in
11:57 48.6 °F 45.1 °F 30.5 in SSW 1 mph 4 mph 88 % 0 in
12:02 48.7 °F 45.3 °F 30.5 in SSW 2 mph 4 mph 88 % 0 in
12:12 48.9 °F 45.5 °F 30.5 in SSW 4 mph 4 mph 88 % 0 in
12:17 48.9 °F 45.5 °F 30.5 in SSW 2 mph 4 mph 88 % 0 in
12:22 49.3 °F 45.9 °F 30.5 in SSW 2 mph 4 mph 88 % 0 in
12:32 49.6 °F 46.2 °F 30.5 in SSW 3 mph 5 mph 88 % 0 in
12:37 49.8 °F 46.4 °F 30.5 in SSW 3 mph 6 mph 88 % 0 in
12:42 50.2 °F 46.8 °F 30.5 in SSW 5 mph 6 mph 88 % 0 in
12:52 50.5 °F 46.6 °F 30.5 in South 2 mph 6 mph 86 % 0 in
12:57 50.7 °F 46.8 °F 30.5 in SSW 2 mph 5 mph 86 % 0 in
13:02 50.9 °F 46.9 °F 30.5 in South 1 mph 4 mph 86 % 0 in
13:12 51.6 °F 47.5 °F 30.5 in SSW 2 mph 4 mph 86 % 0 in
13:17 51.8 °F 47.5 °F 30.5 in SW 2 mph 4 mph 85 % 0 in
13:22 52 °F 47.3 °F 30.5 in South 3 mph 5 mph 84 % 0 in
13:32 52.3 °F 46.9 °F 30.5 in SSW 3 mph 4 mph 82 % 0 in
13:37 52.5 °F 46.9 °F 30.5 in SSW 1 mph 4 mph 81 % 0 in
13:42 52.9 °F 47.8 °F 30.5 in SW 4 mph 4 mph 83 % 0 in
13:47 53.2 °F 48.2 °F 30.5 in Calm   5 mph 83 % 0 in
13:52 53.6 °F 47.7 °F 30.5 in SSW 1 mph 5 mph 80 % 0 in
13:57 54 °F 47.7 °F 30.5 in SSW 2 mph 5 mph 79 % 0 in
14:02 54 °F 48 °F 30.5 in SSW 2 mph 5 mph 80 % 0 in
14:07 54.1 °F 48 °F 30.5 in SW 3 mph 7 mph 80 % 0 in
14:12 54.5 °F 48.4 °F 30.5 in SSW 5 mph 7 mph 80 % 0 in
14:17 54.7 °F 48.6 °F 30.5 in SSW 3 mph 7 mph 80 % 0 in
14:27 55.2 °F 49.1 °F 30.5 in South 3 mph 7 mph 80 % 0 in
14:32 55.2 °F 48.7 °F 30.5 in SSW 1 mph 7 mph 79 % 0 in
14:42 55 °F 48.6 °F 30.5 in SW 3 mph 9 mph 79 % 0 in
14:47 54.9 °F 48.7 °F 30.4 in SSW 6 mph 9 mph 80 % 0 in
14:52 54.9 °F 48.6 °F 30.4 in SW 5 mph 8 mph 79 % 0 in
14:57 54.7 °F 48.6 °F 30.4 in SW 6 mph 8 mph 80 % 0 in
15:02 54.7 °F 48.6 °F 30.4 in SW 5 mph 7 mph 80 % 0 in
15:12 54.7 °F 48.6 °F 30.4 in SSW 1 mph 8 mph 80 % 0 in
15:22 54.7 °F 48.6 °F 30.4 in WSW 3 mph 6 mph 80 % 0 in
15:32 54.7 °F 48.9 °F 30.4 in WSW 3 mph 6 mph 81 % 0 in
15:37 54.5 °F 48.7 °F 30.4 in SW 2 mph 6 mph 81 % 0 in
15:42 54.3 °F 48.6 °F 30.4 in SW 2 mph 7 mph 81 % 0 in
15:47 54.3 °F 48.6 °F 30.4 in SW 5 mph 7 mph 81 % 0 in
15:52 54.1 °F 48.4 °F 30.4 in SW 7 mph 7 mph 81 % 0 in
16:02 54 °F 48.6 °F 30.4 in SSW 5 mph 8 mph 82 % 0 in
16:12 53.8 °F 48.7 °F 30.4 in SW 4 mph 7 mph 83 % 0 in
16:17 53.8 °F 48.7 °F 30.4 in SW 5 mph 7 mph 83 % 0 in
16:27 53.8 °F 49.1 °F 30.4 in SSW 4 mph 7 mph 84 % 0 in
16:32 53.8 °F 49.1 °F 30.4 in SSW 1 mph 6 mph 84 % 0 in
16:42 53.8 °F 49.1 °F 30.4 in SW 2 mph 5 mph 84 % 0 in
16:47 53.8 °F 49.1 °F 30.4 in SW 2 mph 5 mph 84 % 0 in
16:52 53.8 °F 49.1 °F 30.4 in SW 2 mph 5 mph 84 % 0 in
16:57 53.8 °F 49.5 °F 30.4 in SW 2 mph 5 mph 85 % 0 in
17:02 53.8 °F 49.5 °F 30.4 in SW 4 mph 5 mph 85 % 0 in
17:12 54.3 °F 49.3 °F 30.4 in Calm   6 mph 83 % 0 in
17:17 54.3 °F 48.9 °F 30.4 in SW 2 mph 6 mph 82 % 0 in
17:22 54.1 °F 49.1 °F 30.4 in SW 4 mph 6 mph 83 % 0 in
17:32 53.8 °F 49.1 °F 30.4 in SSW 4 mph 5 mph 84 % 0 in
17:42 53.2 °F 48.6 °F 30.4 in SW 2 mph 6 mph 84 % 0 in
17:47 53.2 °F 48.2 °F 30.4 in SW 3 mph 6 mph 83 % 0 in
17:57 53.2 °F 48.2 °F 30.4 in West 1 mph 5 mph 83 % 0 in
18:02 53.1 °F 48 °F 30.4 in WNW 2 mph 4 mph 83 % 0 in
18:12 52.2 °F 47.8 °F 30.4 in Calm   2 mph 85 % 0 in
18:17 52.2 °F 47.8 °F 30.4 in Calm   2 mph 85 % 0 in
18:22 52.2 °F 47.8 °F 30.4 in Calm   2 mph 85 % 0 in
18:32 51.8 °F 47.7 °F 30.4 in Calm   2 mph 86 % 0 in
18:37 51.4 °F 47.5 °F 30.4 in Calm   2 mph 86 % 0 in
18:42 51.4 °F 47.7 °F 30.4 in North 1 mph 2 mph 87 % 0 in
18:52 51.4 °F 47.7 °F 30.4 in Calm   1 mph 87 % 0 in
18:57 51.4 °F 47.7 °F 30.4 in Calm   1 mph 87 % 0 in
19:02 51.3 °F 47.5 °F 30.4 in Calm     87 % 0 in
19:12 51.3 °F 47.8 °F 30.4 in Calm     88 % 0 in
19:17 51.6 °F 47.8 °F 30.4 in Calm   1 mph 87 % 0 in
19:27 51.3 °F 47.8 °F 30.4 in NNW 1 mph 2 mph 88 % 0 in
19:32 51.3 °F 47.5 °F 30.4 in North 1 mph 2 mph 87 % 0 in
19:37 51.1 °F 47.7 °F 30.4 in NNW 1 mph 2 mph 88 % 0 in
19:42 50.9 °F 47.5 °F 30.4 in NNW 1 mph 3 mph 88 % 0 in
19:47 51.1 °F 48 °F 30.4 in Calm   3 mph 89 % 0 in
19:57 50.9 °F 47.5 °F 30.4 in Calm   2 mph 88 % 0 in
20:02 50.7 °F 47.7 °F 30.4 in NNW 1 mph 1 mph 89 % 0 in
20:12 51.1 °F 48.2 °F 30.4 in Calm   2 mph 90 % 0 in
20:17 50.7 °F 47.8 °F 30.4 in WNW 2 mph 3 mph 90 % 0.02 in
20:22 50.5 °F 48 °F 30.4 in Calm   4 mph 91 % 0.02 in
20:27 50.4 °F 48.2 °F 30.4 in Calm   4 mph 92 % 0.04 in
20:37 50.2 °F 48.2 °F 30.4 in Calm   2 mph 93 % 0.06 in
20:42 50.2 °F 48.2 °F 30.4 in NW 1 mph 1 mph 93 % 0.06 in
20:47 50.2 °F 48.6 °F 30.4 in North 1 mph 1 mph 94 % 0.07 in
20:52 49.8 °F 48.2 °F 30.4 in Calm   2 mph 94 % 0.07 in
20:57 49.8 °F 48.2 °F 30.4 in Calm   2 mph 94 % 0.07 in
21:02 49.6 °F 48 °F 30.4 in South 1 mph 2 mph 94 % 0.07 in
21:07 49.5 °F 47.8 °F 30.4 in Calm   2 mph 94 % 0.07 in
21:12 49.5 °F 48 °F 30.4 in Calm   2 mph 95 % 0.06 in
21:17 49.5 °F 48 °F 30.4 in Calm   2 mph 95 % 0.06 in
21:27 49.1 °F 47.7 °F 30.4 in Calm   1 mph 95 % 0.03 in
21:32 49.1 °F 47.7 °F 30.4 in Calm   1 mph 95 % 0.02 in
21:42 49.3 °F 48.2 °F 30.4 in Calm   1 mph 96 % 0.01 in
21:47 49.3 °F 48.2 °F 30.4 in Calm     96 % 0 in
21:52 49.1 °F 47.7 °F 30.4 in NNW 2 mph   95 % 0 in
21:57 48.7 °F 47.3 °F 30.4 in Calm   2 mph 95 % 0 in
22:02 48.4 °F 46.9 °F 30.4 in Calm   2 mph 95 % 0 in
22:07 48.2 °F 46.8 °F 30.4 in Calm   2 mph 95 % 0 in
22:12 48 °F 46.9 °F 30.4 in NNW 1 mph   96 % 0 in
22:17 47.8 °F 46.8 °F 30.4 in Calm   1 mph 96 % 0 in
22:22 47.5 °F 46 °F 30.4 in SSW 2 mph 2 mph 95 % 0 in
22:27 47.5 °F 46.4 °F 30.4 in Calm   2 mph 96 % 0 in
22:32 47.3 °F 46.2 °F 30.4 in Calm   2 mph 96 % 0 in
22:37 47.1 °F 46 °F 30.4 in Calm   2 mph 96 % 0 in
22:42 47.3 °F 46.2 °F 30.4 in Calm   2 mph 96 % 0 in
22:47 47.5 °F 46.8 °F 30.4 in Calm   1 mph 97 % 0 in
22:52 47.1 °F 46 °F 30.4 in North 1 mph   96 % 0 in
23:02 47.5 °F 46.8 °F 30.4 in Calm   2 mph 97 % 0 in
23:12 47.7 °F 46.9 °F 30.4 in Calm   1 mph 97 % 0 in
23:17 47.8 °F 46.9 °F 30.4 in Calm   1 mph 97 % 0 in
23:22 47.8 °F 46.9 °F 30.4 in Calm     97 % 0 in
23:27 47.7 °F 46.9 °F 30.4 in Calm     97 % 0 in
23:32 47.7 °F 46.9 °F 30.4 in Calm     97 % 0 in
23:37 47.1 °F 46 °F 30.4 in Calm     96 % 0 in
23:42 47.1 °F 46.4 °F 30.4 in Calm     97 % 0 in
23:47 47.5 °F 46.8 °F 30.4 in Calm     97 % 0 in
23:52 47.3 °F 46.6 °F 30.4 in Calm     97 % 0 in
Meteo18
Compliments of Weather Underground - 4 mb

Script developed by  Jim McMurry - jmcmurry@mwt.net Adapted for the template by  Wim van der Kuil - Leuven-Template.eu

You find our weather info also at:

European Weather Network

Weather Underground

Equipment we use:

Weather-station
Davis Vue

Weather-program
Meteohub

Weather-server
Raspberry PI 2 B+

Provider
1 and 1

Davis Vue

Meteohub

Raspberry PI 2 B+

1 and 1